Time;durP1;ratioP1;P1;durP2;ratioP2;P2;SDS_P1;SDS_P2;PMS_P1;PMS_P2;Temp;Humidity;BMP_temperature;BMP_pressure;BME280_temperature;BME280_humidity;BME280_pressure;Samples;Min_cycle;Max_cycle;Signal;HPM_P1;HPM_P2
2022/04/14 00:09:47;;;;;;;22.17;11.07;;;14.70;99.90;;;;;;6757532;88;20187;-79
2022/04/14 00:19:48;;;;;;;18.62;10.65;;;14.60;99.90;;;;;;6761190;88;20196;-79
2022/04/14 00:29:49;;;;;;;16.10;9.70;;;14.50;99.90;;;;;;6721789;88;20693;-78
2022/04/14 00:39:51;;;;;;;15.75;9.18;;;14.40;99.90;;;;;;6760704;88;20263;-78
2022/04/14 00:49:51;;;;;;;18.40;10.18;;;14.40;99.90;;;;;;6732344;88;20667;-78
2022/04/14 00:59:52;;;;;;;19.30;10.32;;;14.40;99.90;;;;;;6759225;88;20205;-78
2022/04/14 01:09:54;;;;;;;18.30;10.88;;;14.30;99.90;;;;;;6718514;88;20190;-79
2022/04/14 01:19:54;;;;;;;21.12;11.25;;;14.30;99.90;;;;;;6683974;88;20214;-79
2022/04/14 01:29:55;;;;;;;18.90;10.73;;;14.20;99.90;;;;;;6671768;88;20603;-78
2022/04/14 01:39:56;;;;;;;20.88;10.98;;;14.20;99.90;;;;;;6671588;88;20662;-78
2022/04/14 01:49:56;;;;;;;24.77;12.50;;;14.30;99.90;;;;;;6671235;88;20229;-78
2022/04/14 01:59:58;;;;;;;21.00;13.05;;;14.10;99.90;;;;;;6761014;88;20188;-79
2022/04/14 02:09:58;;;;;;;22.62;13.07;;;14.00;99.90;;;;;;6688115;88;21097;-79
2022/04/14 02:19:59;;;;;;;23.52;13.48;;;13.90;99.90;;;;;;6673726;88;20226;-79
2022/04/14 02:29:59;;;;;;;25.27;13.85;;;13.80;99.90;;;;;;6673139;89;20238;-78
2022/04/14 02:40:00;;;;;;;22.83;13.25;;;13.60;99.90;;;;;;6673181;89;20932;-78
2022/04/14 02:50:02;;;;;;;20.48;11.50;;;13.60;99.90;;;;;;6672660;88;20199;-79
2022/04/14 03:00:05;;;;;;;21.75;11.30;;;13.60;99.90;;;;;;6687539;88;20222;-79
2022/04/14 03:10:07;;;;;;;20.12;11.25;;;13.50;99.90;;;;;;6760874;88;20203;-79
2022/04/14 03:20:08;;;;;;;22.80;11.88;;;13.40;99.90;;;;;;6691976;88;20199;-78
2022/04/14 03:30:12;;;;;;;21.40;12.68;;;13.30;99.90;;;;;;6760938;88;20313;-78
2022/04/14 03:40:13;;;;;;;30.20;15.65;;;13.30;99.90;;;;;;6744357;88;20689;-79
2022/04/14 03:50:14;;;;;;;30.07;16.37;;;13.10;99.90;;;;;;6744216;88;20201;-79
2022/04/14 04:00:14;;;;;;;30.75;16.40;;;13.20;99.90;;;;;;6743937;88;21107;-79
2022/04/14 04:10:15;;;;;;;33.60;17.23;;;13.10;99.90;;;;;;6743647;88;20202;-79
2022/04/14 04:20:15;;;;;;;36.47;17.98;;;13.10;99.90;;;;;;6743073;88;20184;-78
2022/04/14 04:30:16;;;;;;;34.10;17.52;;;13.10;99.90;;;;;;6743030;88;20241;-78
2022/04/14 04:40:18;;;;;;;36.40;19.40;;;13.00;99.90;;;;;;6742595;88;20181;-79
2022/04/14 04:50:19;;;;;;;40.00;20.35;;;13.00;99.90;;;;;;6743458;88;20248;-79
2022/04/14 05:00:19;;;;;;;33.15;18.92;;;13.10;99.90;;;;;;6717046;88;20806;-78
2022/04/14 05:10:20;;;;;;;43.63;21.77;;;13.00;99.90;;;;;;6720531;88;20208;-77
2022/04/14 05:20:20;;;;;;;44.58;22.17;;;12.90;99.90;;;;;;6739287;88;20677;-78
2022/04/14 05:30:21;;;;;;;44.60;23.98;;;12.80;99.90;;;;;;6655112;89;20689;-79
2022/04/14 05:40:21;;;;;;;46.40;23.55;;;12.80;99.90;;;;;;6745030;88;20200;-78
2022/04/14 05:50:22;;;;;;;52.92;26.08;;;12.90;99.90;;;;;;6743307;88;20234;-78
2022/04/14 06:00:22;;;;;;;57.60;26.62;;;12.90;99.90;;;;;;6745501;88;20706;-78
2022/04/14 06:10:24;;;;;;;55.17;27.87;;;12.90;99.90;;;;;;6746218;88;20211;-79
2022/04/14 06:20:25;;;;;;;54.97;26.95;;;12.90;99.90;;;;;;6749798;88;20236;-78
2022/04/14 06:30:26;;;;;;;59.10;28.60;;;13.20;99.90;;;;;;6747172;88;20290;-79
2022/04/14 06:40:27;;;;;;;66.80;29.80;;;13.10;99.90;;;;;;6745048;88;20211;-79
2022/04/14 06:50:27;;;;;;;67.05;29.17;;;13.00;99.90;;;;;;6746985;88;20358;-79
2022/04/14 07:00:29;;;;;;;59.03;28.48;;;13.00;99.90;;;;;;6746356;88;20241;-79
2022/04/14 07:10:29;;;;;;;63.92;28.90;;;13.00;99.90;;;;;;6745469;88;20230;-79
2022/04/14 07:20:30;;;;;;;61.70;26.75;;;13.00;99.90;;;;;;6746938;88;20224;-79
2022/04/14 07:30:31;;;;;;;58.70;26.70;;;13.00;99.90;;;;;;6742033;88;20187;-78
2022/04/14 07:40:32;;;;;;;57.15;25.75;;;13.00;99.90;;;;;;6745411;88;20184;-78
2022/04/14 07:50:33;;;;;;;52.78;24.27;;;13.00;99.90;;;;;;6745964;88;20200;-78
2022/04/14 08:00:34;;;;;;;51.03;23.27;;;13.10;99.90;;;;;;6746778;88;20631;-80
2022/04/14 08:10:35;;;;;;;48.42;23.45;;;13.10;99.90;;;;;;6746301;88;20210;-78
2022/04/14 08:20:40;;;;;;;45.97;22.95;;;13.50;99.90;;;;;;6741988;88;20199;-78
2022/04/14 08:30:42;;;;;;;45.67;22.03;;;13.60;99.90;;;;;;6743516;88;20180;-79
2022/04/14 08:40:46;;;;;;;40.42;20.95;;;13.60;99.90;;;;;;6657466;88;20219;-79
2022/04/14 08:50:50;;;;;;;38.40;20.27;;;13.90;99.90;;;;;;6655931;88;20234;-80
2022/04/14 09:00:50;;;;;;;43.03;21.75;;;14.30;99.90;;;;;;6655598;88;20183;-78
2022/04/14 09:10:51;;;;;;;42.60;21.57;;;14.40;99.90;;;;;;6656123;88;20246;-79
2022/04/14 09:21:03;;;;;;;47.65;23.15;;;14.80;99.90;;;;;;6656077;88;20539;-80
2022/04/14 09:31:06;;;;;;;43.00;21.65;;;15.20;99.90;;;;;;6657310;88;20731;-79
2022/04/14 09:41:41;;;;;;;36.10;20.98;;;16.10;99.90;;;;;;6656117;88;20727;-79
2022/04/14 09:51:44;;;;;;;43.20;23.23;;;15.90;99.90;;;;;;6670911;88;20210;-79
2022/04/14 10:01:46;;;;;;;42.75;24.70;;;16.70;99.90;;;;;;6670496;88;20526;-80
2022/04/14 10:11:46;;;;;;;41.22;23.73;;;17.80;99.90;;;;;;6657537;88;20195;-78
2022/04/14 10:21:47;;;;;;;42.95;26.70;;;17.70;99.90;;;;;;6657612;89;20652;-79
2022/04/14 10:31:53;;;;;;;44.10;27.17;;;18.20;99.90;;;;;;6656764;88;20644;-78
2022/04/14 10:41:55;;;;;;;43.33;28.70;;;18.70;99.90;;;;;;6745019;88;20501;-79
2022/04/14 10:52:23;;;;;;;39.10;26.65;;;20.30;99.90;;;;;;6656490;89;20212;-78
2022/04/14 11:02:23;;;;;;;33.90;24.08;;;21.60;99.90;;;;;;6745109;88;20324;-79
2022/04/14 11:12:25;;;;;;;29.63;21.62;;;21.80;99.90;;;;;;6656442;89;20702;-78
2022/04/14 11:22:25;;;;;;;28.27;22.25;;;22.80;99.90;;;;;;6742053;88;20336;-79
2022/04/14 11:32:37;;;;;;;28.55;21.12;;;22.90;99.90;;;;;;6741050;88;20187;-79
2022/04/14 11:42:38;;;;;;;29.30;22.40;;;23.60;98.50;;;;;;6655597;88;20200;-78
2022/04/14 11:52:41;;;;;;;28.33;19.97;;;22.10;99.90;;;;;;6655803;89;20203;-79
2022/04/14 12:02:50;;;;;;;26.33;19.42;;;20.90;99.90;;;;;;6655876;88;20553;-80
2022/04/14 12:12:52;;;;;;;23.05;16.52;;;20.40;99.90;;;;;;6680761;88;20233;-80
2022/04/14 12:22:52;;;;;;;13.88;9.40;;;20.60;99.90;;;;;;6673181;88;20656;-79
2022/04/14 12:33:06;;;;;;;14.10;10.02;;;20.80;99.90;;;;;;6672834;88;20258;-79
2022/04/14 12:43:19;;;;;;;12.67;8.93;;;21.40;99.50;;;;;;6686083;88;20255;-78
2022/04/14 12:53:26;;;;;;;10.60;7.95;;;23.00;95.90;;;;;;6755110;88;20208;-79
2022/04/14 13:03:47;;;;;;;8.60;5.35;;;23.60;93.70;;;;;;6760096;88;20209;-79
2022/04/14 13:13:48;;;;;;;7.05;3.83;;;22.90;93.50;;;;;;6761143;87;20186;-79
2022/04/14 13:23:48;;;;;;;6.50;3.12;;;22.70;91.70;;;;;;6760870;88;20211;-80
2022/04/14 13:33:49;;;;;;;5.87;3.80;;;22.80;93.20;;;;;;6761978;88;20187;-79
2022/04/14 13:43:49;;;;;;;8.38;6.30;;;23.20;91.80;;;;;;6761306;88;20667;-80
2022/04/14 13:53:50;;;;;;;7.97;5.22;;;22.70;93.00;;;;;;6740092;88;20714;-79
2022/04/14 14:03:52;;;;;;;8.63;5.55;;;23.10;94.00;;;;;;6764117;88;20235;-79
2022/04/14 14:13:53;;;;;;;11.18;6.70;;;22.70;91.80;;;;;;6764864;87;20183;-78
2022/04/14 14:23:54;;;;;;;11.05;6.47;;;21.40;92.50;;;;;;6675832;88;20689;-78
2022/04/14 14:33:55;;;;;;;7.30;4.80;;;21.80;93.40;;;;;;6763833;88;20180;-79
2022/04/14 14:43:56;;;;;;;9.50;6.07;;;22.10;90.70;;;;;;6765610;88;20266;-78
2022/04/14 14:53:56;;;;;;;10.38;7.10;;;22.10;91.90;;;;;;6763861;88;20422;-79
2022/04/14 15:03:57;;;;;;;9.50;7.05;;;21.20;92.60;;;;;;6761106;88;20354;-78
2022/04/14 15:13:58;;;;;;;8.53;5.80;;;21.00;92.80;;;;;;6747391;88;20350;-78
2022/04/14 15:23:58;;;;;;;9.68;5.90;;;20.70;93.00;;;;;;6747619;88;20185;-78
2022/04/14 15:33:59;;;;;;;9.60;6.28;;;20.70;93.90;;;;;;6748265;88;20202;-79
2022/04/14 15:43:59;;;;;;;11.38;6.30;;;20.40;94.20;;;;;;6746895;88;20630;-78
2022/04/14 15:54:00;;;;;;;10.63;7.32;;;20.30;95.10;;;;;;6746085;88;20208;-78
2022/04/14 16:04:00;;;;;;;11.07;7.27;;;19.90;95.70;;;;;;6743724;88;20749;-79
2022/04/14 16:14:01;;;;;;;11.15;7.95;;;20.10;96.00;;;;;;6747549;88;20279;-78
2022/04/14 16:24:02;;;;;;;10.52;8.15;;;19.60;96.20;;;;;;6763553;87;20175;-78
2022/04/14 16:34:03;;;;;;;12.68;8.80;;;19.50;96.10;;;;;;6763398;88;20190;-78
2022/04/14 16:44:05;;;;;;;11.98;8.52;;;19.30;97.00;;;;;;6764470;88;20190;-78
2022/04/14 16:54:07;;;;;;;9.85;7.55;;;19.30;97.00;;;;;;6763577;88;20201;-78
2022/04/14 17:04:07;;;;;;;8.43;5.97;;;19.10;96.60;;;;;;6761024;88;20601;-78
2022/04/14 17:14:08;;;;;;;6.68;4.95;;;19.20;95.70;;;;;;6760292;88;20220;-79
2022/04/14 17:24:21;;;;;;;8.07;4.70;;;19.00;95.00;;;;;;6760855;87;20190;-80
2022/04/14 17:34:21;;;;;;;8.95;4.80;;;18.80;96.80;;;;;;6760962;88;20188;-78
2022/04/14 17:44:22;;;;;;;7.45;5.03;;;18.60;97.20;;;;;;6760563;88;20244;-79
2022/04/14 17:54:23;;;;;;;6.53;5.03;;;18.60;98.40;;;;;;6762630;88;20192;-79
2022/04/14 18:04:23;;;;;;;7.25;4.30;;;18.30;99.70;;;;;;6763498;88;20176;-80
2022/04/14 18:14:24;;;;;;;7.28;3.70;;;18.00;99.80;;;;;;6763010;88;20273;-80
2022/04/14 18:24:24;;;;;;;7.07;3.90;;;17.70;99.90;;;;;;6762833;88;20246;-81
2022/04/14 18:34:25;;;;;;;9.10;3.40;;;17.50;99.90;;;;;;6768708;87;20179;-80
2022/04/14 18:44:25;;;;;;;11.82;5.87;;;17.20;99.90;;;;;;6778840;87;20278;-78
2022/04/14 18:54:26;;;;;;;7.53;3.95;;;17.00;99.90;;;;;;6778754;87;20195;-78
2022/04/14 19:04:27;;;;;;;7.43;3.53;;;16.80;99.90;;;;;;6689614;89;20821;-79
2022/04/14 19:14:28;;;;;;;7.47;3.83;;;16.50;99.90;;;;;;6768798;87;20689;-79
2022/04/14 19:24:29;;;;;;;6.97;3.62;;;16.30;99.90;;;;;;6778476;87;20725;-79
2022/04/14 19:34:29;;;;;;;7.80;4.45;;;16.20;99.90;;;;;;6778123;87;20187;-79
2022/04/14 19:44:30;;;;;;;6.97;4.72;;;15.90;99.90;;;;;;6776741;87;20263;-79
2022/04/14 20:04:34;;;;;;;6.70;4.87;;;15.60;99.90;;;;;;6786326;87;20272;-82
2022/04/14 20:14:35;;;;;;;7.30;5.30;;;15.30;99.90;;;;;;6748765;88;20512;-83
2022/04/14 20:24:35;;;;;;;9.50;5.90;;;15.10;99.90;;;;;;6748634;88;20166;-82
2022/04/14 20:34:37;;;;;;;9.52;6.22;;;14.90;99.90;;;;;;6748601;88;20149;-82
2022/04/14 20:44:38;;;;;;;11.52;7.30;;;14.80;99.90;;;;;;6758701;88;20191;-83
2022/04/14 20:54:39;;;;;;;12.65;8.15;;;14.90;99.90;;;;;;6765900;88;20254;-83
2022/04/14 21:04:40;;;;;;;11.12;8.40;;;14.90;99.90;;;;;;6765041;88;20568;-83
2022/04/14 21:14:40;;;;;;;15.60;10.00;;;14.80;99.90;;;;;;6780418;87;20195;-83
2022/04/14 21:24:41;;;;;;;17.77;11.35;;;14.80;99.90;;;;;;6784527;87;20984;-82
2022/04/14 21:34:42;;;;;;;17.15;11.18;;;14.60;99.90;;;;;;6677196;88;20259;-82
2022/04/14 21:44:43;;;;;;;14.07;10.98;;;14.50;99.90;;;;;;6677278;88;20485;-85
2022/04/14 21:54:43;;;;;;;18.80;11.85;;;14.40;99.90;;;;;;6677484;88;20253;-83
2022/04/14 22:04:45;;;;;;;16.50;10.93;;;14.30;99.90;;;;;;6743973;88;21326;-82
2022/04/14 22:14:46;;;;;;;18.05;10.30;;;14.20;99.90;;;;;;6713867;88;20179;-83
2022/04/14 22:24:46;;;;;;;17.12;11.38;;;14.20;99.90;;;;;;6715875;88;20166;-82
2022/04/14 22:34:47;;;;;;;20.08;11.48;;;14.00;99.90;;;;;;6694947;88;20199;-83
2022/04/14 22:44:47;;;;;;;16.90;12.25;;;13.90;99.90;;;;;;6725242;88;20267;-82
2022/04/14 22:54:48;;;;;;;17.40;12.07;;;13.70;99.90;;;;;;6698424;88;20906;-82
2022/04/14 23:04:48;;;;;;;17.12;12.25;;;13.50;99.90;;;;;;6723033;88;20174;-83
2022/04/14 23:14:55;;;;;;;16.80;11.52;;;13.30;99.90;;;;;;6662372;88;20170;-82
2022/04/14 23:24:57;;;;;;;18.30;12.65;;;13.20;99.90;;;;;;6761315;87;20164;-82
2022/04/14 23:34:57;;;;;;;16.40;11.60;;;13.00;99.90;;;;;;6785912;87;20622;-81
2022/04/14 23:44:58;;;;;;;17.15;11.23;;;12.90;99.90;;;;;;6748603;88;20193;-81
2022/04/14 23:54:58;;;;;;;15.88;10.98;;;12.80;99.90;;;;;;6731349;87;20228;-81
